createdAt,value
2022-12-19T00:00:32.430Z,56.40
2022-12-19T00:05:38.167Z,70.78
2022-12-19T00:10:39.777Z,67.82
2022-12-19T00:15:41.458Z,70.25
2022-12-19T00:20:43.128Z,68.68
2022-12-19T00:25:44.727Z,64.03
2022-12-19T00:30:47.389Z,63.97
2022-12-19T00:35:49.027Z,67.53
2022-12-19T00:40:50.708Z,68.32
2022-12-19T00:45:52.365Z,68.93
2022-12-19T00:51:00.524Z,69.93
2022-12-19T00:56:04.838Z,75.63
2022-12-19T01:01:08.380Z,76.07
2022-12-19T01:11:12.867Z,67.00
2022-12-19T01:16:14.605Z,73.93
2022-12-19T01:21:16.247Z,69.63
2022-12-19T01:26:17.874Z,66.60
2022-12-19T01:31:19.595Z,70.03
2022-12-19T01:36:21.399Z,68.93
2022-12-19T01:41:23.187Z,69.03
2022-12-19T01:46:43.637Z,70.57
2022-12-19T01:51:48.193Z,69.50
2022-12-19T01:56:56.164Z,65.53
2022-12-19T02:02:07.565Z,64.25
2022-12-19T02:07:15.549Z,60.92
2022-12-19T02:12:18.199Z,66.50
2022-12-19T02:17:39.828Z,69.72
2022-12-19T02:23:00.448Z,67.07
2022-12-19T02:28:11.050Z,64.80
2022-12-19T02:33:43.500Z,60.72
2022-12-19T02:38:56.315Z,66.20
2022-12-19T02:43:59.219Z,59.78
2022-12-19T02:49:01.299Z,65.93
2022-12-19T02:54:03.464Z,64.55
2022-12-19T02:59:32.213Z,60.92
2022-12-19T03:05:14.291Z,64.55
2022-12-19T03:10:45.185Z,73.40
2022-12-19T03:15:47.515Z,67.03
2022-12-19T03:21:02.362Z,66.82
2022-12-19T03:26:12.658Z,71.47
2022-12-19T03:31:16.142Z,71.45
2022-12-19T03:36:24.349Z,64.40
2022-12-19T03:41:53.466Z,69.47
2022-12-19T03:47:00.779Z,63.40
2022-12-19T03:52:32.583Z,67.40
2022-12-19T03:57:46.805Z,65.78
2022-12-19T04:02:50.889Z,62.88
2022-12-19T04:08:01.779Z,61.28
2022-12-19T04:13:12.537Z,59.10
2022-12-19T04:18:15.341Z,64.40
2022-12-19T04:23:27.159Z,57.08
2022-12-19T04:28:45.956Z,60.63
2022-12-19T04:33:47.628Z,63.65
2022-12-19T04:38:49.273Z,66.93
2022-12-19T04:43:51.043Z,54.10
2022-12-19T04:48:52.768Z,68.03
2022-12-19T04:53:54.545Z,73.97
2022-12-19T04:58:57.984Z,66.65
2022-12-19T05:04:04.353Z,60.42
2022-12-19T05:09:06.735Z,62.75
2022-12-19T05:14:08.956Z,58.75
2022-12-19T05:19:10.883Z,63.05
2022-12-19T05:24:12.656Z,65.75
2022-12-19T05:29:14.317Z,66.05
2022-12-19T05:34:15.991Z,59.92
2022-12-19T05:39:17.614Z,67.63
2022-12-19T05:44:19.234Z,64.35
2022-12-19T05:49:20.973Z,62.88
2022-12-19T05:54:22.816Z,59.20
2022-12-19T05:59:24.541Z,60.85
2022-12-19T06:04:26.223Z,69.45
2022-12-19T06:09:29.037Z,62.47
2022-12-19T06:14:30.748Z,73.03
2022-12-19T06:19:32.512Z,66.65
2022-12-19T06:24:34.166Z,58.28
2022-12-19T06:29:35.897Z,59.90
2022-12-19T06:35:03.268Z,64.93
2022-12-19T06:39:59.379Z,64.45
2022-12-19T06:45:01.041Z,59.92
2022-12-19T06:50:03.870Z,60.65
2022-12-19T06:55:14.628Z,61.60
2022-12-19T07:00:16.989Z,63.35
2022-12-19T07:05:19.054Z,61.90
2022-12-19T07:10:20.875Z,68.78
2022-12-19T07:15:24.201Z,74.72
2022-12-19T07:20:45.336Z,68.05
2022-12-19T07:25:48.428Z,68.85
2022-12-19T07:30:52.322Z,69.10
2022-12-19T07:35:54.286Z,65.88
2022-12-19T07:40:56.419Z,70.90
2022-12-19T07:46:01.707Z,69.38
2022-12-19T07:51:04.632Z,61.35
2022-12-19T07:56:07.371Z,69.97
2022-12-19T08:01:10.057Z,65.22
2022-12-19T08:06:11.886Z,74.97
2022-12-19T08:11:18.888Z,79.22
2022-12-19T08:16:21.300Z,75.63
2022-12-19T08:21:24.213Z,79.63
2022-12-19T08:31:31.722Z,82.47
2022-12-19T08:36:33.845Z,75.78
2022-12-19T08:41:36.826Z,88.40
2022-12-19T08:46:38.784Z,85.33
2022-12-19T08:51:40.620Z,73.80
2022-12-19T08:56:46.031Z,74.57
2022-12-19T09:01:49.829Z,68.75
2022-12-19T09:06:51.697Z,76.35
2022-12-19T09:11:53.579Z,79.72
2022-12-19T09:16:55.535Z,75.65
2022-12-19T09:22:01.278Z,69.43
2022-12-19T09:27:03.280Z,77.18
2022-12-19T09:32:05.308Z,73.50
2022-12-19T09:37:08.595Z,77.55
2022-12-19T09:42:16.461Z,83.20
2022-12-19T09:47:23.298Z,75.10
2022-12-19T09:52:43.476Z,69.70
2022-12-19T09:57:51.128Z,90.72
2022-12-19T10:03:02.521Z,70.43
2022-12-19T10:08:23.192Z,76.90
2022-12-19T10:13:49.760Z,78.72
2022-12-19T10:19:14.186Z,70.20
2022-12-19T10:24:41.968Z,70.57
2022-12-19T10:30:20.862Z,76.78
2022-12-19T10:35:25.024Z,60.33
2022-12-19T10:40:34.592Z,52.85
2022-12-19T10:45:47.091Z,60.53
2022-12-19T10:50:49.590Z,58.58
2022-12-19T10:55:55.674Z,52.15
2022-12-19T11:01:18.953Z,58.53
2022-12-19T11:06:41.502Z,55.33
2022-12-19T11:13:25.840Z,49.40
2022-12-19T11:25:02.492Z,52.70
2022-12-19T11:30:42.815Z,60.35
2022-12-19T11:30:45.892Z,58.10
2022-12-19T11:33:17.543Z,57.10
2022-12-19T11:38:42.120Z,55.40
2022-12-19T11:44:01.955Z,64.95
2022-12-19T11:49:12.863Z,68.10
2022-12-19T11:54:25.455Z,65.78
2022-12-19T11:59:30.494Z,60.28
2022-12-19T12:05:20.653Z,55.25
2022-12-19T12:16:28.597Z,52.33
2022-12-19T12:22:29.115Z,48.50
2022-12-19T12:31:06.436Z,46.05
2022-12-19T12:31:18.719Z,48.60
2022-12-19T12:35:36.474Z,51.85
2022-12-19T12:39:02.441Z,52.38
2022-12-19T12:44:09.797Z,40.55
2022-12-19T12:49:36.315Z,40.83
2022-12-19T12:54:42.563Z,40.13
2022-12-19T12:59:46.438Z,40.50
2022-12-19T13:05:00.649Z,37.13
2022-12-19T13:15:27.440Z,38.47
2022-12-19T13:20:29.168Z,35.67
2022-12-19T13:25:33.725Z,33.80
2022-12-19T13:31:13.494Z,31.60
2022-12-19T13:39:33.753Z,33.13
2022-12-19T13:41:49.711Z,38.72
2022-12-19T13:46:54.556Z,36.30
2022-12-19T13:51:58.204Z,33.40
2022-12-19T13:57:08.200Z,37.80
2022-12-19T14:02:38.885Z,37.13
2022-12-19T14:07:47.617Z,34.40
2022-12-19T14:14:01.378Z,35.30
2022-12-19T14:18:44.375Z,27.58
2022-12-19T14:23:47.366Z,28.35
2022-12-19T14:29:04.763Z,24.77
2022-12-19T14:34:43.372Z,32.83
2022-12-19T14:39:33.581Z,27.60
2022-12-19T14:52:08.827Z,31.35
2022-12-19T14:54:22.928Z,29.23
2022-12-19T14:56:56.087Z,27.65
2022-12-19T15:01:40.016Z,29.00
2022-12-19T15:07:10.037Z,26.20
2022-12-19T15:14:03.996Z,30.88
2022-12-19T15:17:55.387Z,26.58
2022-12-19T15:22:57.110Z,29.40
2022-12-19T15:27:58.824Z,25.90
2022-12-19T15:33:00.500Z,22.35
2022-12-19T15:38:02.219Z,25.77
2022-12-19T15:43:04.866Z,27.80
2022-12-19T15:48:06.539Z,31.17
2022-12-19T15:53:40.175Z,26.40
2022-12-19T16:03:44.872Z,27.27
2022-12-19T16:08:46.691Z,25.35
2022-12-19T16:14:06.614Z,31.83
2022-12-19T16:19:24.281Z,26.70
2022-12-19T16:24:26.067Z,27.00
2022-12-19T16:29:31.227Z,28.95
2022-12-19T16:34:32.969Z,30.85
2022-12-19T16:39:34.740Z,27.38
2022-12-19T16:44:36.433Z,28.35
2022-12-19T16:49:38.232Z,27.75
2022-12-19T16:54:40.080Z,26.33
2022-12-19T16:59:42.405Z,19.80
2022-12-19T17:04:48.955Z,23.90
2022-12-19T17:09:54.195Z,20.65
2022-12-19T17:14:55.944Z,21.40
2022-12-19T17:19:57.630Z,19.75
2022-12-19T17:24:59.647Z,21.02
2022-12-19T17:30:01.292Z,21.08
2022-12-19T17:35:03.077Z,20.52
2022-12-19T17:40:15.984Z,18.33
2022-12-19T17:45:20.649Z,19.55
2022-12-19T17:50:28.067Z,20.90
2022-12-19T17:55:30.863Z,22.27
2022-12-19T18:00:33.719Z,25.55
2022-12-19T18:05:36.557Z,22.77
2022-12-19T18:10:38.261Z,22.40
2022-12-19T18:15:41.125Z,22.55
2022-12-19T18:20:44.394Z,21.33
2022-12-19T18:25:47.081Z,13.95
2022-12-19T18:30:50.028Z,20.35
2022-12-19T18:35:51.785Z,18.55
2022-12-19T18:40:53.531Z,21.50
2022-12-19T18:45:55.749Z,17.80
2022-12-19T18:50:59.062Z,16.30
2022-12-19T18:56:02.009Z,15.20
2022-12-19T19:01:05.597Z,18.23
2022-12-19T19:06:32.939Z,22.00
2022-12-19T19:11:37.703Z,20.85
2022-12-19T19:16:39.922Z,17.65
2022-12-19T19:21:42.611Z,19.95
2022-12-19T19:26:44.685Z,18.63
2022-12-19T19:31:48.765Z,21.08
2022-12-19T19:36:54.764Z,21.80
2022-12-19T19:41:56.545Z,22.10
2022-12-19T19:46:58.475Z,19.02
2022-12-19T19:52:03.237Z,20.70
2022-12-19T19:57:05.127Z,21.17
2022-12-19T20:02:08.530Z,23.05
2022-12-19T20:07:10.395Z,18.50
2022-12-19T20:12:14.195Z,18.40
2022-12-19T20:17:15.873Z,20.15
2022-12-19T20:22:17.963Z,17.23
2022-12-19T20:27:19.657Z,20.05
2022-12-19T20:32:31.782Z,22.77
2022-12-19T20:37:33.491Z,30.63
2022-12-19T20:42:35.869Z,23.88
2022-12-19T20:47:48.318Z,25.40
2022-12-19T20:52:50.053Z,22.88
2022-12-19T20:57:51.757Z,23.85
2022-12-19T21:03:26.206Z,27.02
2022-12-19T21:08:17.171Z,24.60
2022-12-19T21:13:19.614Z,21.50
2022-12-19T21:18:21.825Z,24.15
2022-12-19T21:23:25.538Z,17.85
2022-12-19T21:28:27.834Z,19.15
2022-12-19T21:33:30.207Z,20.83
2022-12-19T21:38:31.952Z,20.38
2022-12-19T21:43:35.180Z,18.33
2022-12-19T21:48:41.825Z,24.33
2022-12-19T21:53:43.587Z,17.33
2022-12-19T21:58:45.433Z,18.52
2022-12-19T22:03:47.633Z,17.38
2022-12-19T22:08:50.055Z,18.77
2022-12-19T22:13:51.779Z,17.98
2022-12-19T22:18:54.883Z,19.08
2022-12-19T22:23:58.545Z,17.48
2022-12-19T22:29:00.382Z,14.07
2022-12-19T22:34:04.750Z,16.80
2022-12-19T22:39:10.199Z,15.80
2022-12-19T22:44:25.421Z,19.60
2022-12-19T22:49:27.145Z,17.17
2022-12-19T22:54:28.927Z,13.70
2022-12-19T22:59:30.816Z,14.50
2022-12-19T23:04:32.625Z,17.02
2022-12-19T23:09:34.283Z,15.82
2022-12-19T23:14:35.906Z,14.82
2022-12-19T23:19:37.608Z,12.52
2022-12-19T23:24:40.294Z,13.50
2022-12-19T23:29:42.066Z,8.05
2022-12-19T23:34:43.951Z,9.82
2022-12-19T23:39:45.654Z,8.25
2022-12-19T23:44:47.323Z,13.70
2022-12-19T23:49:49.276Z,13.27
2022-12-19T23:54:51.425Z,11.68
2022-12-19T23:59:53.149Z,10.27
